Crete, IL (60417)

5:07 PM CST on December 09, 2016 (GMT -0600)
Northern Crete IL | | Change Station
Active Advisory: Winter Storm Watch

Elev 730 ft 41.47 °N, 87.62 °W | Updated 41 seconds ago

Partly Cloudy
Partly Cloudy
19.5 °F
Feels Like 20 °F
N
0.0
Wind Variable Wind from West
Gusts 0.0 mph

Today
High -- | Low -- °F
--% Chance of Precip.
Yesterday
High -- | Low -- °F
Precip. -- in
Pressure 30.52 in
Visibility 10.0 miles
Clouds Clear
Windchill 20 °F
Dew Point 11 °F
Humidity 69%
Rainfall Not available.
Snow Depth Not available.
7:05 AM 4:20 PM
Waxing Gibbous, 78% visible
METAR KIGQ 092255Z AUTO 27006KT 10SM CLR M06/M10 A3052 RMK AO2 T10591096
Pressure 30.52 in
Visibility 10.0 miles
Clouds Clear
Windchill 20 °F
Dew Point 11 °F
Humidity 69%
Rainfall Not available.
Snow Depth Not available.
7:05 AM 4:20 PM
Waxing Gibbous, 78% visible
METAR KIGQ 092255Z AUTO 27006KT 10SM CLR M06/M10 A3052 RMK AO2 T10591096

10-Day Weather Forecast

Almanac

Astronomy

Dec. 09, 2016 Rise Set
Actual Time
Civil Twilight
Nautical Twilight
Astronomical Twilight
Moon
Length of Visible Light
Length of Day
Tomorrow will be .
, % of the Moon is Illuminated

Today's Extremes

State Highs State Lows

Community

WunderPhotos

Upload Photos

1,956,535 photos uploaded!

WunderBlog® & News

Nearby

Air Quality

  Air Quality AQ Index Pollutant
Not available.

Snow Depth

Station Depth Elevation

Earthquake Activity

City Distance Mag. Time & Date
Minimum magnitude displayed is 2.5.

Coastal Water Temperatures

Place Temperature

Stations

Nearby Weather Stations

Station Location Temp. Windchill Dew Point Humidity Wind Precip. Elev Updated Type
                   

Watches & Warnings

Winter Storm Watch
Issued: 3:23 PM CST Dec. 9, 2016 – National Weather Service

... Winter Storm Watch remains in effect from Saturday evening
through late Sunday night...

* timing... snow will develop over the area by early Saturday
evening and continue through Sunday evening.

* Snow accumulations... in excess of 6 inches possible.

* Main impact... the potential of snow covered roads and low
visibilities may make travel hazardous.

Precautionary/preparedness actions...

A Winter Storm Watch means there is a potential for significant
snow... sleet... or ice accumulations that may impact travel.
Continue to monitor the latest forecasts.



Kjb